createdAt,value
2019-05-14T00:01:07.963Z,48.97
2019-05-14T00:06:12.963Z,50.04
2019-05-14T00:11:18.271Z,50.42
2019-05-14T00:16:24.335Z,50.42
2019-05-14T00:21:31.602Z,50.29
2019-05-14T00:26:36.699Z,50.93
2019-05-14T00:31:42.730Z,52.62
2019-05-14T00:36:48.293Z,52.38
2019-05-14T00:41:53.402Z,52.61
2019-05-14T00:46:58.590Z,52.63
2019-05-14T00:52:03.769Z,53.35
2019-05-14T00:57:11.583Z,53.82
2019-05-14T01:02:16.022Z,54.06
2019-05-14T01:07:21.350Z,55.02
2019-05-14T01:12:26.552Z,55.29
2019-05-14T01:17:32.028Z,56.32
2019-05-14T01:22:37.729Z,55.97
2019-05-14T01:27:43.459Z,55.48
2019-05-14T01:32:51.051Z,57.09
2019-05-14T01:37:56.266Z,57.66
2019-05-14T01:43:02.754Z,57.53
2019-05-14T01:48:08.474Z,57.68
2019-05-14T01:53:13.951Z,58.52
2019-05-14T01:58:21.876Z,58.60
2019-05-14T02:03:27.085Z,57.93
2019-05-14T02:08:32.506Z,57.88
2019-05-14T02:13:37.977Z,57.49
2019-05-14T02:18:43.913Z,57.91
2019-05-14T02:23:51.249Z,58.78
2019-05-14T02:28:55.762Z,59.33
2019-05-14T02:34:01.112Z,59.17
2019-05-14T02:39:10.155Z,59.05
2019-05-14T02:44:18.642Z,59.37
2019-05-14T02:49:22.282Z,58.83
2019-05-14T02:54:29.759Z,58.72
2019-05-14T02:59:34.169Z,58.43
2019-05-14T03:04:39.987Z,58.82
2019-05-14T03:09:45.321Z,59.99
2019-05-14T03:14:51.001Z,60.16
2019-05-14T03:19:59.867Z,61.08
2019-05-14T03:25:03.756Z,61.37
2019-05-14T03:30:12.270Z,61.83
2019-05-14T03:35:22.550Z,61.54
2019-05-14T03:40:23.263Z,62.18
2019-05-14T03:45:30.097Z,63.04
2019-05-14T03:50:38.740Z,64.14
2019-05-14T03:55:42.618Z,64.96
2019-05-14T04:00:50.978Z,64.77
2019-05-14T04:05:59.330Z,64.76
2019-05-14T04:11:05.052Z,63.70
2019-05-14T04:16:13.331Z,64.26
2019-05-14T04:21:21.043Z,64.50
2019-05-14T04:26:30.199Z,64.79
2019-05-14T04:31:34.554Z,64.20
2019-05-14T04:36:40.426Z,63.11
2019-05-14T04:41:45.992Z,64.09
2019-05-14T04:46:51.431Z,63.61
2019-05-14T04:51:59.591Z,63.24
2019-05-14T04:57:03.357Z,61.88
2019-05-14T05:02:09.754Z,62.55
2019-05-14T05:07:15.282Z,61.47
2019-05-14T05:12:20.461Z,60.71
2019-05-14T05:17:40.013Z,59.32
2019-05-14T05:22:33.056Z,58.25
2019-05-14T05:27:38.928Z,56.57
2019-05-14T05:32:44.508Z,55.67
2019-05-14T05:37:49.633Z,52.82
2019-05-14T05:42:54.734Z,51.71
2019-05-14T05:48:01.794Z,51.89
2019-05-14T05:53:09.017Z,49.83
2019-05-14T05:58:14.451Z,50.72
2019-05-14T06:03:20.932Z,48.86
2019-05-14T06:08:28.266Z,47.81
2019-05-14T06:13:33.697Z,47.65
2019-05-14T06:18:39.639Z,49.04
2019-05-14T06:23:44.737Z,47.82
2019-05-14T06:28:49.992Z,46.57
2019-05-14T06:33:55.974Z,47.47
2019-05-14T06:39:01.116Z,45.11
2019-05-14T06:44:06.261Z,45.36
2019-05-14T06:49:11.735Z,43.17
2019-05-14T06:54:19.631Z,45.80
2019-05-14T06:59:24.187Z,42.80
2019-05-14T07:04:29.376Z,42.86
2019-05-14T07:09:35.119Z,43.85
2019-05-14T07:14:40.515Z,42.74
2019-05-14T07:19:48.757Z,41.58
2019-05-14T07:24:53.140Z,44.02
2019-05-14T07:29:58.494Z,40.68
2019-05-14T07:35:04.118Z,39.90
2019-05-14T07:40:10.436Z,38.83
2019-05-14T07:45:18.496Z,38.46
2019-05-14T07:50:23.708Z,40.91
2019-05-14T07:55:29.275Z,39.22
2019-05-14T08:00:34.523Z,37.76
2019-05-14T08:05:39.944Z,36.97
2019-05-14T08:10:45.106Z,37.33
2019-05-14T08:15:50.605Z,38.11
2019-05-14T08:20:55.884Z,40.30
2019-05-14T08:26:03.801Z,39.09
2019-05-14T08:31:09.477Z,39.89
2019-05-14T08:36:14.904Z,40.79
2019-05-14T08:41:20.201Z,38.22
2019-05-14T08:46:25.306Z,39.85
2019-05-14T08:51:30.597Z,42.24
2019-05-14T08:56:38.738Z,41.06
2019-05-14T09:01:57.422Z,41.12
2019-05-14T09:06:50.335Z,39.23
2019-05-14T09:11:55.826Z,39.86
2019-05-14T09:17:00.835Z,40.87
2019-05-14T09:22:06.247Z,39.46
2019-05-14T09:27:11.561Z,37.81
2019-05-14T09:32:19.096Z,37.51
2019-05-14T09:37:24.029Z,37.09
2019-05-14T09:42:29.160Z,36.41
2019-05-14T09:47:34.519Z,37.35
2019-05-14T09:52:40.110Z,41.27
2019-05-14T09:57:45.177Z,42.75
2019-05-14T10:02:50.715Z,45.18
2019-05-14T10:07:56.266Z,44.25
2019-05-14T10:13:01.899Z,42.26
2019-05-14T10:18:11.883Z,37.90
2019-05-14T10:23:14.242Z,35.40
2019-05-14T10:28:19.540Z,38.54
2019-05-14T10:33:25.286Z,37.48
2019-05-14T10:38:30.646Z,37.09
2019-05-14T10:43:35.932Z,36.29
2019-05-14T10:48:41.294Z,35.06
2019-05-14T10:53:48.841Z,33.47
2019-05-14T10:58:53.352Z,32.31
2019-05-14T11:03:58.922Z,34.05
2019-05-14T11:09:05.900Z,32.59
2019-05-14T11:14:11.051Z,31.89
2019-05-14T11:19:18.655Z,30.48
2019-05-14T11:24:24.130Z,31.27
2019-05-14T11:29:29.811Z,26.95
2019-05-14T11:34:35.159Z,27.64
2019-05-14T11:39:40.917Z,28.96
2019-05-14T11:44:48.643Z,28.06
2019-05-14T11:49:53.314Z,29.19
2019-05-14T11:54:58.613Z,31.10
2019-05-14T12:00:04.907Z,31.97
2019-05-14T12:05:10.430Z,32.14
2019-05-14T12:10:18.429Z,30.61
2019-05-14T12:15:22.895Z,27.03
2019-05-14T12:20:29.643Z,27.84
2019-05-14T12:25:35.391Z,30.52
2019-05-14T12:30:40.958Z,30.12
2019-05-14T12:35:49.235Z,30.11
2019-05-14T12:40:53.615Z,30.35
2019-05-14T12:45:59.607Z,26.91
2019-05-14T12:51:05.043Z,26.80
2019-05-14T12:56:10.639Z,31.10
2019-05-14T13:01:15.742Z,30.03
2019-05-14T13:06:20.951Z,29.33
2019-05-14T13:11:26.094Z,28.71
2019-05-14T13:16:31.540Z,26.01
2019-05-14T13:21:38.913Z,26.70
2019-05-14T13:26:44.087Z,28.43
2019-05-14T13:31:49.800Z,27.50
2019-05-14T13:36:54.935Z,27.78
2019-05-14T13:42:00.414Z,28.40
2019-05-14T13:47:05.607Z,28.44
2019-05-14T13:52:10.765Z,28.02
2019-05-14T13:57:19.159Z,27.98
2019-05-14T14:02:23.394Z,28.09
2019-05-14T14:07:28.849Z,27.46
2019-05-14T14:12:34.162Z,29.38
2019-05-14T14:17:39.895Z,30.65
2019-05-14T14:22:48.886Z,31.23
2019-05-14T14:27:53.205Z,31.28
2019-05-14T14:32:58.863Z,30.76
2019-05-14T14:38:04.535Z,30.15
2019-05-14T14:43:10.196Z,31.56
2019-05-14T14:48:15.459Z,30.50
2019-05-14T14:53:40.868Z,32.24
2019-05-14T14:58:28.627Z,32.91
2019-05-14T15:03:33.819Z,33.14
2019-05-14T15:08:39.685Z,30.40
2019-05-14T15:13:45.186Z,31.17
2019-05-14T15:18:50.452Z,32.04
2019-05-14T15:24:07.231Z,32.43
2019-05-14T15:29:03.111Z,33.64
2019-05-14T15:34:09.005Z,31.81
2019-05-14T15:39:14.879Z,31.71
2019-05-14T15:44:20.239Z,31.05
2019-05-14T15:49:28.208Z,30.03
2019-05-14T15:54:42.274Z,32.30
2019-05-14T15:59:39.724Z,32.84
2019-05-14T16:04:45.192Z,34.43
2019-05-14T16:09:50.479Z,33.96
2019-05-14T16:14:55.856Z,33.34
2019-05-14T16:20:01.639Z,33.30
2019-05-14T16:25:08.923Z,34.09
2019-05-14T16:30:14.571Z,35.02
2019-05-14T16:35:21.239Z,31.70
2019-05-14T16:40:28.799Z,31.73
2019-05-14T16:45:33.637Z,29.34
2019-05-14T16:50:39.010Z,31.50
2019-05-14T16:55:44.386Z,31.55
2019-05-14T17:00:49.491Z,32.17
2019-05-14T17:05:55.298Z,31.67
2019-05-14T17:11:00.946Z,31.63
2019-05-14T17:16:08.526Z,33.09
2019-05-14T17:21:13.865Z,34.14
2019-05-14T17:26:19.519Z,35.68
2019-05-14T17:31:31.096Z,36.21
2019-05-14T17:36:38.810Z,36.46
2019-05-14T17:41:43.347Z,40.00
2019-05-14T17:46:49.073Z,40.00
2019-05-14T17:51:54.440Z,55.07
2019-05-14T17:57:00.348Z,61.04
2019-05-14T18:02:05.574Z,62.27
2019-05-14T18:07:10.994Z,61.83
2019-05-14T18:12:18.538Z,61.96
2019-05-14T18:17:23.226Z,61.04
2019-05-14T18:22:28.972Z,61.76
2019-05-14T18:27:34.069Z,59.88
2019-05-14T18:32:39.492Z,57.48
2019-05-14T18:37:44.624Z,55.83
2019-05-14T18:42:50.317Z,54.63
2019-05-14T18:47:55.676Z,54.82
2019-05-14T18:53:00.843Z,54.31
2019-05-14T18:58:08.423Z,55.29
2019-05-14T19:03:13.481Z,55.52
2019-05-14T19:08:19.250Z,55.38
2019-05-14T19:13:24.802Z,55.60
2019-05-14T19:18:30.221Z,55.57
2019-05-14T19:23:35.405Z,55.61
2019-05-14T19:28:40.846Z,56.03
2019-05-14T19:33:45.872Z,56.40
2019-05-14T19:38:50.996Z,57.07
2019-05-14T19:43:56.588Z,57.19
2019-05-14T19:49:02.030Z,58.75
2019-05-14T19:54:08.304Z,58.75
2019-05-14T19:59:13.655Z,59.34
2019-05-14T20:04:19.166Z,59.94
2019-05-14T20:09:24.515Z,60.10
2019-05-14T20:14:29.604Z,61.48
2019-05-14T20:19:35.300Z,61.16
2019-05-14T20:24:41.786Z,61.24
2019-05-14T20:29:48.713Z,60.87
2019-05-14T20:34:54.250Z,59.26
2019-05-14T20:39:59.322Z,59.88
2019-05-14T20:45:04.980Z,59.51
2019-05-14T20:50:10.378Z,58.88
2019-05-14T20:55:18.448Z,58.62
2019-05-14T21:00:22.961Z,57.70
2019-05-14T21:05:28.809Z,58.27
2019-05-14T21:10:33.995Z,57.29
2019-05-14T21:15:39.396Z,58.75
2019-05-14T21:20:45.133Z,57.80
2019-05-14T21:25:50.893Z,58.76
2019-05-14T21:30:56.393Z,59.25
2019-05-14T21:36:01.508Z,59.19
2019-05-14T21:41:06.794Z,59.60
2019-05-14T21:46:12.665Z,59.86
2019-05-14T21:51:18.307Z,60.20
2019-05-14T21:56:23.449Z,61.20
2019-05-14T22:01:31.073Z,60.89
2019-05-14T22:06:38.350Z,60.80
2019-05-14T22:11:43.241Z,62.10
2019-05-14T22:16:48.814Z,61.99
2019-05-14T22:21:53.989Z,61.87
2019-05-14T22:26:59.331Z,62.67
2019-05-14T22:32:05.162Z,63.49
2019-05-14T22:37:10.398Z,63.35
2019-05-14T22:42:18.739Z,64.25
2019-05-14T22:47:23.009Z,64.21
2019-05-14T22:52:31.121Z,64.64
2019-05-14T22:57:35.641Z,64.93
2019-05-14T23:02:40.867Z,65.53
2019-05-14T23:07:48.433Z,66.15
2019-05-14T23:12:53.033Z,64.78
2019-05-14T23:17:58.863Z,65.24
2019-05-14T23:23:04.736Z,65.23
2019-05-14T23:28:09.735Z,64.44
2019-05-14T23:33:14.920Z,64.26
2019-05-14T23:38:20.449Z,64.40
2019-05-14T23:43:25.798Z,64.33
2019-05-14T23:48:30.931Z,65.06
2019-05-14T23:53:38.825Z,64.92
2019-05-14T23:58:54.912Z,63.54
